createdAt,value
2023-01-08T00:00:59.047Z,26.20
2023-01-08T00:04:19.716Z,26.00
2023-01-08T00:07:21.740Z,26.00
2023-01-08T00:10:23.962Z,26.00
2023-01-08T00:13:26.748Z,25.90
2023-01-08T00:16:29.688Z,25.70
2023-01-08T00:19:31.736Z,25.90
2023-01-08T00:22:33.968Z,25.80
2023-01-08T00:25:35.991Z,25.70
2023-01-08T00:28:38.930Z,25.70
2023-01-08T00:31:40.936Z,25.90
2023-01-08T00:34:43.305Z,25.80
2023-01-08T00:37:45.398Z,25.80
2023-01-08T00:40:48.802Z,25.60
2023-01-08T00:43:50.838Z,25.50
2023-01-08T00:46:53.083Z,25.40
2023-01-08T00:49:55.188Z,25.30
2023-01-08T00:52:57.775Z,25.30
2023-01-08T00:56:10.039Z,25.40
2023-01-08T00:59:12.706Z,25.80
2023-01-08T01:02:14.899Z,26.00
2023-01-08T01:05:17.609Z,25.80
2023-01-08T01:08:19.659Z,25.80
2023-01-08T01:11:27.765Z,25.70
2023-01-08T01:14:29.725Z,25.80
2023-01-08T01:17:32.075Z,25.80
2023-01-08T01:20:34.075Z,25.90
2023-01-08T01:23:36.599Z,25.70
2023-01-08T01:26:39.197Z,25.70
2023-01-08T01:29:41.561Z,25.80
2023-01-08T01:32:43.514Z,25.80
2023-01-08T01:35:45.726Z,25.80
2023-01-08T01:38:49.494Z,25.70
2023-01-08T01:41:53.315Z,25.70
2023-01-08T01:44:55.309Z,25.70
2023-01-08T01:48:06.379Z,25.90
2023-01-08T01:51:08.396Z,25.90
2023-01-08T01:54:13.155Z,25.80
2023-01-08T01:57:15.380Z,25.90
2023-01-08T02:00:18.153Z,25.90
2023-01-08T02:03:25.971Z,25.70
2023-01-08T02:06:52.278Z,25.70
2023-01-08T02:10:23.187Z,25.60
2023-01-08T02:13:33.688Z,25.50
2023-01-08T02:16:58.078Z,25.40
2023-01-08T02:20:37.408Z,25.50
2023-01-08T02:24:18.291Z,25.10
2023-01-08T02:27:24.110Z,25.30
2023-01-08T02:30:26.649Z,25.30
2023-01-08T02:33:29.876Z,25.20
2023-01-08T02:36:39.894Z,25.10
2023-01-08T02:40:04.745Z,25.10
2023-01-08T02:43:14.602Z,25.10
2023-01-08T02:46:25.902Z,25.20
2023-01-08T02:49:32.298Z,25.00
2023-01-08T02:52:41.028Z,25.20
2023-01-08T02:55:48.814Z,25.00
2023-01-08T02:58:53.022Z,24.90
2023-01-08T03:01:55.641Z,24.90
2023-01-08T03:05:04.948Z,24.60
2023-01-08T03:08:07.645Z,24.60
2023-01-08T03:11:13.311Z,24.60
2023-01-08T03:14:43.463Z,24.50
2023-01-08T03:17:50.050Z,24.50
2023-01-08T03:20:52.937Z,24.50
2023-01-08T03:23:57.037Z,24.60
2023-01-08T03:27:04.071Z,24.50
2023-01-08T03:30:08.084Z,24.20
2023-01-08T03:33:12.688Z,24.40
2023-01-08T03:36:20.218Z,24.50
2023-01-08T03:39:33.916Z,25.20
2023-01-08T03:42:36.195Z,24.80
2023-01-08T03:45:40.524Z,24.60
2023-01-08T03:48:43.835Z,24.50
2023-01-08T03:51:47.470Z,24.50
2023-01-08T03:54:49.804Z,24.20
2023-01-08T03:57:51.771Z,24.40
2023-01-08T04:00:54.321Z,24.20
2023-01-08T04:03:56.398Z,24.50
2023-01-08T04:06:58.648Z,24.50
2023-01-08T04:10:00.632Z,24.80
2023-01-08T04:13:02.866Z,24.70
2023-01-08T04:16:05.359Z,24.90
2023-01-08T04:19:07.657Z,24.90
2023-01-08T04:22:11.132Z,24.90
2023-01-08T04:25:13.420Z,25.00
2023-01-08T04:28:15.424Z,25.00
2023-01-08T04:31:17.753Z,25.00
2023-01-08T04:34:19.772Z,25.00
2023-01-08T04:37:22.110Z,25.00
2023-01-08T04:40:24.148Z,25.00
2023-01-08T04:43:27.454Z,24.90
2023-01-08T04:46:29.706Z,24.90
2023-01-08T04:49:32.082Z,24.90
2023-01-08T04:52:34.260Z,25.00
2023-01-08T04:55:37.953Z,25.00
2023-01-08T04:58:41.614Z,25.00
2023-01-08T05:01:44.088Z,25.00
2023-01-08T05:04:47.429Z,24.90
2023-01-08T05:07:49.728Z,24.90
2023-01-08T05:10:51.686Z,25.00
2023-01-08T05:13:54.697Z,25.00
2023-01-08T05:16:56.700Z,25.10
2023-01-08T05:19:58.951Z,25.10
2023-01-08T05:23:01.570Z,25.00
2023-01-08T05:26:06.174Z,25.00
2023-01-08T05:29:08.156Z,24.90
2023-01-08T05:32:16.167Z,24.80
2023-01-08T05:35:18.328Z,24.80
2023-01-08T05:38:20.913Z,24.90
2023-01-08T05:41:22.973Z,24.80
2023-01-08T05:44:25.248Z,24.80
2023-01-08T05:47:30.729Z,24.70
2023-01-08T05:50:33.372Z,24.70
2023-01-08T05:53:36.101Z,24.50
2023-01-08T05:56:38.612Z,24.50
2023-01-08T05:59:40.607Z,24.70
2023-01-08T06:02:47.640Z,24.60
2023-01-08T06:05:50.036Z,24.40
2023-01-08T06:08:52.977Z,24.50
2023-01-08T06:11:54.993Z,24.60
2023-01-08T06:14:57.206Z,24.60
2023-01-08T06:18:03.244Z,24.20
2023-01-08T06:21:05.909Z,24.40
2023-01-08T06:24:08.059Z,24.30
2023-01-08T06:27:10.407Z,24.00
2023-01-08T06:30:12.999Z,24.20
2023-01-08T06:33:15.484Z,24.00
2023-01-08T06:36:17.609Z,24.00
2023-01-08T06:39:19.894Z,24.00
2023-01-08T06:42:21.888Z,24.10
2023-01-08T06:45:24.125Z,24.00
2023-01-08T06:48:26.511Z,24.00
2023-01-08T06:51:28.752Z,24.20
2023-01-08T06:54:31.072Z,24.40
2023-01-08T06:57:33.375Z,24.60
2023-01-08T07:00:35.376Z,24.60
2023-01-08T07:03:37.653Z,24.40
2023-01-08T07:06:39.777Z,24.20
2023-01-08T07:09:42.827Z,24.30
2023-01-08T07:12:44.826Z,24.50
2023-01-08T07:15:47.152Z,24.60
2023-01-08T07:18:49.160Z,24.70
2023-01-08T07:21:51.415Z,24.60
2023-01-08T07:24:53.689Z,24.30
2023-01-08T07:27:55.939Z,24.40
2023-01-08T07:30:58.096Z,24.40
2023-01-08T07:34:00.407Z,24.20
2023-01-08T07:37:03.311Z,24.30
2023-01-08T07:40:06.304Z,24.50
2023-01-08T07:43:12.418Z,24.60
2023-01-08T07:46:15.273Z,24.70
2023-01-08T07:49:17.456Z,24.80
2023-01-08T07:52:19.684Z,24.70
2023-01-08T07:55:21.799Z,24.70
2023-01-08T07:58:24.048Z,24.80
2023-01-08T08:01:26.509Z,24.90
2023-01-08T08:04:28.915Z,25.00
2023-01-08T08:07:31.569Z,25.00
2023-01-08T08:10:33.952Z,24.90
2023-01-08T08:13:35.946Z,24.70
2023-01-08T08:16:38.592Z,24.70
2023-01-08T08:19:46.205Z,24.80
2023-01-08T08:22:48.477Z,24.80
2023-01-08T08:25:51.876Z,25.30
2023-01-08T08:28:54.181Z,24.70
2023-01-08T08:31:56.161Z,24.70
2023-01-08T08:34:58.444Z,24.80
2023-01-08T08:38:00.876Z,24.90
2023-01-08T08:41:03.267Z,25.10
2023-01-08T08:44:05.493Z,25.20
2023-01-08T08:47:09.243Z,25.30
2023-01-08T08:50:11.220Z,25.40
2023-01-08T08:53:13.471Z,25.30
2023-01-08T08:56:15.435Z,25.40
2023-01-08T08:59:17.667Z,25.50
2023-01-08T09:02:20.290Z,25.50
2023-01-08T09:05:22.649Z,25.40
2023-01-08T09:08:24.641Z,25.60
2023-01-08T09:11:26.884Z,25.50
2023-01-08T09:14:28.900Z,25.40
2023-01-08T09:17:31.275Z,25.40
2023-01-08T09:20:33.338Z,25.50
2023-01-08T09:23:36.011Z,25.50
2023-01-08T09:26:38.038Z,25.60
2023-01-08T09:29:40.275Z,25.60
2023-01-08T09:32:42.240Z,25.70
2023-01-08T09:35:44.984Z,25.70
2023-01-08T09:38:47.120Z,25.70
2023-01-08T09:41:51.613Z,25.70
2023-01-08T09:44:57.253Z,25.70
2023-01-08T09:48:03.335Z,25.90
2023-01-08T09:51:09.680Z,25.90
2023-01-08T09:54:16.336Z,25.90
2023-01-08T09:57:20.975Z,25.90
2023-01-08T10:00:29.369Z,25.90
2023-01-08T10:03:44.248Z,26.00
2023-01-08T10:06:51.600Z,26.10
2023-01-08T10:09:54.712Z,26.00
2023-01-08T10:12:58.148Z,26.00
2023-01-08T10:16:01.652Z,26.10
2023-01-08T10:19:05.183Z,26.20
2023-01-08T10:22:17.471Z,26.20
2023-01-08T10:25:22.885Z,26.10
2023-01-08T10:28:30.201Z,26.20
2023-01-08T10:31:33.168Z,26.20
2023-01-08T10:34:51.459Z,26.20
2023-01-08T10:37:54.360Z,26.40
2023-01-08T10:40:57.073Z,26.30
2023-01-08T10:44:03.634Z,26.40
2023-01-08T10:47:06.331Z,26.50
2023-01-08T10:50:20.410Z,26.50
2023-01-08T10:53:26.329Z,26.40
2023-01-08T10:56:31.996Z,26.50
2023-01-08T10:59:36.482Z,26.40
2023-01-08T11:02:40.307Z,26.40
2023-01-08T11:05:43.095Z,26.40
2023-01-08T11:08:53.633Z,26.40
2023-01-08T11:11:56.047Z,26.40
2023-01-08T11:14:58.992Z,26.40
2023-01-08T11:18:16.673Z,26.40
2023-01-08T11:21:25.629Z,26.50
2023-01-08T11:24:37.753Z,26.60
2023-01-08T11:27:44.476Z,26.50
2023-01-08T11:30:55.325Z,26.50
2023-01-08T11:34:07.697Z,26.50
2023-01-08T11:37:20.633Z,26.50
2023-01-08T11:40:29.303Z,26.50
2023-01-08T11:43:37.279Z,26.50
2023-01-08T11:47:08.793Z,26.40
2023-01-08T11:50:18.134Z,26.50
2023-01-08T11:53:52.838Z,26.40
2023-01-08T11:57:06.736Z,26.30
2023-01-08T12:00:32.464Z,26.10
2023-01-08T12:03:44.889Z,26.20
2023-01-08T12:07:05.353Z,26.40
2023-01-08T12:10:42.777Z,26.50
2023-01-08T12:13:55.534Z,26.40
2023-01-08T12:17:03.335Z,26.40
2023-01-08T12:20:05.549Z,26.50
2023-01-08T12:23:19.437Z,26.40
2023-01-08T12:27:01.843Z,26.30
2023-01-08T12:30:36.510Z,26.20
2023-01-08T12:33:43.771Z,26.20
2023-01-08T12:36:54.094Z,26.10
2023-01-08T12:40:23.852Z,26.00
2023-01-08T12:43:37.387Z,26.10
2023-01-08T12:46:43.312Z,26.10
2023-01-08T12:49:56.993Z,26.00
2023-01-08T12:53:06.453Z,26.00
2023-01-08T12:56:11.190Z,26.10
2023-01-08T12:59:25.210Z,26.10
2023-01-08T13:03:02.182Z,26.20
2023-01-08T13:06:11.960Z,26.10
2023-01-08T13:09:24.665Z,26.10
2023-01-08T13:12:37.704Z,25.90
2023-01-08T13:15:39.723Z,26.10
2023-01-08T13:18:58.331Z,26.10
2023-01-08T13:22:01.089Z,26.30
2023-01-08T13:25:15.352Z,26.20
2023-01-08T13:28:38.724Z,26.30
2023-01-08T13:31:41.685Z,26.50
2023-01-08T13:34:43.755Z,26.50
2023-01-08T13:37:51.954Z,26.60
2023-01-08T13:40:56.719Z,26.50
2023-01-08T13:44:06.293Z,26.50
2023-01-08T13:47:33.778Z,26.70
2023-01-08T13:50:37.322Z,26.90
2023-01-08T13:53:42.551Z,26.70
2023-01-08T13:56:46.729Z,26.70
2023-01-08T14:00:00.017Z,26.80
2023-01-08T14:03:02.430Z,26.80
2023-01-08T14:06:13.490Z,26.90
2023-01-08T14:09:24.047Z,27.00
2023-01-08T14:12:26.280Z,27.00
2023-01-08T14:15:29.442Z,27.00
2023-01-08T14:18:32.453Z,27.10
2023-01-08T14:21:35.056Z,27.10
2023-01-08T14:24:37.195Z,27.10
2023-01-08T14:27:39.902Z,27.10
2023-01-08T14:30:51.800Z,27.00
2023-01-08T14:33:57.207Z,27.00
2023-01-08T14:36:59.240Z,26.90
2023-01-08T14:40:01.548Z,27.10
2023-01-08T14:43:08.473Z,26.90
2023-01-08T14:46:27.282Z,26.90
2023-01-08T14:49:34.268Z,26.80
2023-01-08T14:52:40.607Z,26.80
2023-01-08T14:55:45.841Z,26.90
2023-01-08T14:58:48.864Z,26.80
2023-01-08T15:01:58.589Z,26.80
2023-01-08T15:05:20.760Z,26.80
2023-01-08T15:08:24.218Z,26.80
2023-01-08T15:11:36.114Z,26.70
2023-01-08T15:14:39.357Z,26.70
2023-01-08T15:17:41.788Z,26.60
2023-01-08T15:20:45.124Z,26.60
2023-01-08T15:23:55.787Z,26.60
2023-01-08T15:26:59.227Z,26.50
2023-01-08T15:30:03.641Z,26.50
2023-01-08T15:33:31.925Z,26.50
2023-01-08T15:36:34.557Z,26.60
2023-01-08T15:39:36.714Z,26.40
2023-01-08T15:42:57.507Z,26.40
2023-01-08T15:45:59.639Z,26.40
2023-01-08T15:49:01.937Z,26.40
2023-01-08T15:52:04.161Z,26.20
2023-01-08T15:55:07.680Z,26.00
2023-01-08T15:58:12.297Z,25.90
2023-01-08T16:01:14.689Z,26.00
2023-01-08T16:04:16.811Z,25.90
2023-01-08T16:07:19.572Z,25.90
2023-01-08T16:10:21.671Z,25.80
2023-01-08T16:13:24.043Z,25.70
2023-01-08T16:16:26.007Z,26.00
2023-01-08T16:19:30.399Z,26.10
2023-01-08T16:22:32.372Z,26.30
2023-01-08T16:25:35.205Z,26.40
2023-01-08T16:28:37.357Z,26.60
2023-01-08T16:31:39.725Z,26.60
2023-01-08T16:34:41.713Z,26.70
2023-01-08T16:37:43.969Z,26.60
2023-01-08T16:40:45.969Z,26.80
2023-01-08T16:43:48.369Z,26.90
2023-01-08T16:46:50.818Z,26.90
2023-01-08T16:49:53.152Z,27.00
2023-01-08T16:52:55.107Z,26.80
2023-01-08T16:56:00.018Z,26.80
2023-01-08T16:59:02.849Z,26.80
2023-01-08T17:02:06.607Z,26.80
2023-01-08T17:05:08.960Z,26.80
2023-01-08T17:08:15.763Z,26.60
2023-01-08T17:11:20.558Z,26.60
2023-01-08T17:14:22.905Z,26.60
2023-01-08T17:17:24.871Z,26.60
2023-01-08T17:20:27.253Z,26.60
2023-01-08T17:23:29.455Z,26.60
2023-01-08T17:26:31.927Z,26.50
2023-01-08T17:29:34.105Z,26.50
2023-01-08T17:32:36.632Z,26.50
2023-01-08T17:35:38.649Z,26.60
2023-01-08T17:38:42.913Z,26.60
2023-01-08T17:42:03.498Z,26.50
2023-01-08T17:45:07.616Z,26.50
2023-01-08T17:48:09.797Z,26.40
2023-01-08T17:51:14.225Z,26.60
2023-01-08T17:54:17.144Z,26.60
2023-01-08T17:57:21.264Z,26.80
2023-01-08T18:00:23.399Z,26.70
2023-01-08T18:03:26.233Z,26.70
2023-01-08T18:06:28.448Z,26.80
2023-01-08T18:09:31.032Z,26.80
2023-01-08T18:12:33.097Z,26.80
2023-01-08T18:15:35.466Z,26.70
2023-01-08T18:18:38.253Z,26.70
2023-01-08T18:21:40.609Z,26.60
2023-01-08T18:24:42.891Z,26.40
2023-01-08T18:27:45.291Z,26.50
2023-01-08T18:30:47.643Z,26.50
2023-01-08T18:33:51.779Z,26.50
2023-01-08T18:36:53.737Z,26.50
2023-01-08T18:39:55.982Z,26.50
2023-01-08T18:42:57.996Z,26.40
2023-01-08T18:46:07.709Z,26.30
2023-01-08T18:49:09.881Z,26.30
2023-01-08T18:52:14.039Z,26.30
2023-01-08T18:55:16.165Z,26.30
2023-01-08T18:58:18.430Z,26.30
2023-01-08T19:01:20.566Z,26.20
2023-01-08T19:04:22.872Z,26.30
2023-01-08T19:07:25.771Z,26.30
2023-01-08T19:10:28.157Z,26.30
2023-01-08T19:13:30.185Z,26.20
2023-01-08T19:16:32.510Z,26.20
2023-01-08T19:19:34.669Z,26.10
2023-01-08T19:22:37.247Z,26.10
2023-01-08T19:25:40.468Z,26.10
2023-01-08T19:28:43.225Z,26.10
2023-01-08T19:31:46.171Z,26.10
2023-01-08T19:34:48.650Z,26.10
2023-01-08T19:37:50.739Z,26.10
2023-01-08T19:40:58.124Z,26.00
2023-01-08T19:44:00.333Z,26.10
2023-01-08T19:47:02.648Z,26.20
2023-01-08T19:50:06.362Z,26.10
2023-01-08T19:53:09.046Z,26.10
2023-01-08T19:56:13.306Z,26.20
2023-01-08T19:59:15.650Z,26.10
2023-01-08T20:02:17.908Z,26.10
2023-01-08T20:05:20.223Z,26.00
2023-01-08T20:08:22.252Z,26.00
2023-01-08T20:11:25.474Z,26.00
2023-01-08T20:14:27.811Z,26.00
2023-01-08T20:17:30.337Z,26.00
2023-01-08T20:20:32.432Z,26.00
2023-01-08T20:23:38.882Z,26.00
2023-01-08T20:26:46.314Z,26.00
2023-01-08T20:29:48.703Z,26.00
2023-01-08T20:35:58.570Z,26.00
2023-01-08T20:39:03.899Z,25.90
2023-01-08T20:42:07.156Z,25.90
2023-01-08T20:45:10.039Z,25.80
2023-01-08T20:48:12.376Z,25.80
2023-01-08T20:51:16.822Z,25.80
2023-01-08T20:54:21.515Z,25.70
2023-01-08T20:57:23.637Z,25.70
2023-01-08T21:00:26.030Z,25.70
2023-01-08T21:03:28.095Z,25.60
2023-01-08T21:06:33.060Z,25.50
2023-01-08T21:09:35.309Z,25.60
2023-01-08T21:12:37.759Z,25.50
2023-01-08T21:15:39.997Z,25.50
2023-01-08T21:18:47.159Z,25.40
2023-01-08T21:21:49.433Z,25.50
2023-01-08T21:24:52.313Z,25.50
2023-01-08T21:27:54.507Z,25.40
2023-01-08T21:31:19.244Z,25.30
2023-01-08T21:34:21.645Z,25.30
2023-01-08T21:37:24.141Z,25.00
2023-01-08T21:40:26.180Z,24.70
2023-01-08T21:43:47.116Z,24.90
2023-01-08T21:46:49.832Z,24.90
2023-01-08T21:49:52.451Z,25.20
2023-01-08T21:53:12.851Z,25.20
2023-01-08T21:56:15.758Z,25.00
2023-01-08T21:59:18.067Z,24.90
2023-01-08T22:02:22.236Z,24.80
2023-01-08T22:05:24.510Z,24.60
2023-01-08T22:08:28.103Z,24.70
2023-01-08T22:11:30.168Z,24.70
2023-01-08T22:14:32.589Z,25.00
2023-01-08T22:17:34.659Z,24.70
2023-01-08T22:20:37.189Z,24.90
2023-01-08T22:23:39.726Z,24.90
2023-01-08T22:26:41.975Z,24.70
2023-01-08T22:29:44.006Z,24.70
2023-01-08T22:32:46.520Z,25.00
2023-01-08T22:35:48.531Z,25.20
2023-01-08T22:38:50.788Z,24.80
2023-01-08T22:41:52.844Z,24.90
2023-01-08T22:44:55.167Z,24.90
2023-01-08T22:47:57.364Z,24.70
2023-01-08T22:51:03.791Z,25.00
2023-01-08T22:54:07.266Z,25.20
2023-01-08T22:57:09.889Z,24.90
2023-01-08T23:00:12.516Z,25.10
2023-01-08T23:03:14.827Z,25.20
2023-01-08T23:06:17.955Z,25.40
2023-01-08T23:09:20.443Z,25.40
2023-01-08T23:12:22.455Z,25.40
2023-01-08T23:15:25.716Z,25.30
2023-01-08T23:18:27.733Z,25.40
2023-01-08T23:21:29.997Z,25.40
2023-01-08T23:24:32.437Z,25.40
2023-01-08T23:27:34.828Z,25.30
2023-01-08T23:30:39.973Z,25.40
2023-01-08T23:33:43.754Z,25.40
2023-01-08T23:36:45.773Z,25.50
2023-01-08T23:39:48.512Z,25.60
2023-01-08T23:42:50.461Z,25.60
2023-01-08T23:45:52.980Z,25.50
2023-01-08T23:48:55.844Z,25.50
2023-01-08T23:51:58.547Z,25.40
2023-01-08T23:55:00.521Z,25.50
2023-01-08T23:58:02.814Z,25.50
